Main page
METAR-TAF:

METAR-TAF

Airports :

Katowice, Poland

Katowice International Airport

latitude: 50-28-27N, longitude: 019-04-48E, elevation: 284 m

Current weather observation

The report was made 24 minutes ago, at 14:00 UTC
Wind 6 kt from the South/Southeast, varying between East and South
Temperature 24°C
Humidity 31%
Pressure 1022 hPa
Visibility 10 km or more
no clouds below 1500 m and no cumulonimbus

METAR: EPKT 281400Z 15006KT 100V180 CAVOK 24/06 Q1022

Time: 16:24 (14:24 UTC)

Forecast

The report was made 2 hours and 54 minutes ago, at 11:30 UTC
Forecast valid from 28 at 12 UTC to 29 at 12 UTC
Wind 7 kt from the South/Southeast
Visibility 10 km or more
no clouds below 1500 m and no cumulonimbus
Becoming
from 29 at 00 UTC to 29 at 02 UTC
Wind 10 kt from the Southwest
Becoming
from 29 at 06 UTC to 29 at 08 UTC
Wind 16 kt from the Southwest with gusts up to 27 kt

TAF: EPKT 281130Z 2812/2912 16007KT CAVOK BECMG 2900/2902 22010KT BECMG 2906/2908 23016G27KT

Weather observations and forecasts of more than 4000 airports (METAR and TAF reports).

The available stations are represented by yellow and red dots on the map.

Hover mouse over dot to see the name of the station.

Then click to see weather observations and forecasts.

To change the map : click on the green buttons with a black cross to zoom in, on the green button with a dash to zoom out, or on the green arrows for adjacent maps.


METAR-TAF: